createdAt,value
2022-09-22T00:00:32.788Z,101992.28
2022-09-22T00:03:02.468Z,101993.09
2022-09-22T00:05:32.089Z,101984.44
2022-09-22T00:08:05.287Z,101993.16
2022-09-22T00:10:34.867Z,101998.97
2022-09-22T00:13:04.487Z,102008.25
2022-09-22T00:15:34.944Z,102002.78
2022-09-22T00:18:04.588Z,102005.19
2022-09-22T00:20:34.280Z,101999.22
2022-09-22T00:23:06.490Z,101998.41
2022-09-22T00:25:36.209Z,101990.56
2022-09-22T00:28:05.876Z,101990.47
2022-09-22T00:30:35.571Z,101993.75
2022-09-22T00:33:05.226Z,101997.28
2022-09-22T00:35:38.021Z,101997.94
2022-09-22T00:38:10.543Z,101996.28
2022-09-22T00:40:40.231Z,101989.97
2022-09-22T00:43:21.694Z,101946.28
2022-09-22T00:45:54.844Z,101987.34
2022-09-22T00:48:27.333Z,101975.91
2022-09-22T00:50:59.380Z,101952.25
2022-09-22T00:53:32.385Z,101961.91
2022-09-22T00:56:06.532Z,101988.03
2022-09-22T00:58:39.825Z,101981.31
2022-09-22T01:01:09.968Z,101989.69
2022-09-22T01:03:42.725Z,101974.41
2022-09-22T01:06:17.172Z,101982.72
2022-09-22T01:08:49.700Z,101979.88
2022-09-22T01:11:21.022Z,101961.25
2022-09-22T01:14:06.797Z,101948.31
2022-09-22T01:16:48.751Z,101959.97
2022-09-22T01:19:43.770Z,101972.81
2022-09-22T01:22:32.667Z,101963.22
2022-09-22T01:25:26.103Z,101965.31
2022-09-22T01:28:15.417Z,101921.69
2022-09-22T01:30:50.808Z,101959.28
2022-09-22T01:33:29.428Z,101949.53
2022-09-22T01:36:11.373Z,101969.75
2022-09-22T01:38:48.688Z,101965.63
2022-09-22T01:41:24.180Z,101958.00
2022-09-22T01:43:58.320Z,101955.22
2022-09-22T01:46:34.721Z,101954.50
2022-09-22T01:49:10.612Z,101954.72
2022-09-22T01:51:46.070Z,101962.25
2022-09-22T01:54:19.795Z,101960.91
2022-09-22T01:56:54.748Z,101944.59
2022-09-22T01:59:28.254Z,101943.97
2022-09-22T02:02:05.970Z,101903.16
2022-09-22T02:04:40.010Z,101954.34
2022-09-22T02:07:12.655Z,101941.41
2022-09-22T02:09:44.987Z,101947.31
2022-09-22T02:12:15.944Z,101924.75
2022-09-22T02:14:45.543Z,101936.75
2022-09-22T02:17:18.942Z,101922.84
2022-09-22T02:19:48.714Z,101936.75
2022-09-22T02:22:18.348Z,101941.81
2022-09-22T02:24:49.242Z,101938.94
2022-09-22T02:27:25.754Z,101935.34
2022-09-22T02:29:59.799Z,101935.28
2022-09-22T02:32:33.523Z,101927.13
2022-09-22T02:35:03.196Z,101932.06
2022-09-22T02:37:42.319Z,101939.69
2022-09-22T02:40:19.660Z,101937.88
2022-09-22T02:42:54.928Z,101928.50
2022-09-22T02:45:29.035Z,101925.09
2022-09-22T02:48:04.628Z,101925.09
2022-09-22T02:50:36.546Z,101930.88
2022-09-22T02:53:08.109Z,101917.94
2022-09-22T02:55:37.742Z,101921.13
2022-09-22T02:58:07.400Z,101860.63
2022-09-22T03:00:37.498Z,101915.19
2022-09-22T03:03:10.975Z,101911.09
2022-09-22T03:05:40.950Z,101906.75
2022-09-22T03:08:10.663Z,101898.25
2022-09-22T03:10:40.288Z,101905.97
2022-09-22T03:13:16.282Z,101898.25
2022-09-22T03:15:46.762Z,101892.06
2022-09-22T03:18:19.091Z,101890.41
2022-09-22T03:20:48.875Z,101900.88
2022-09-22T03:23:18.754Z,101883.44
2022-09-22T03:25:48.368Z,101878.19
2022-09-22T03:28:18.048Z,101895.72
2022-09-22T03:30:47.734Z,101890.06
2022-09-22T03:33:20.100Z,101899.16
2022-09-22T03:35:49.788Z,101894.28
2022-09-22T03:38:19.405Z,101890.31
2022-09-22T03:40:53.453Z,101898.50
2022-09-22T03:43:23.391Z,101903.94
2022-09-22T03:45:59.124Z,101890.22
2022-09-22T03:48:32.655Z,101881.25
2022-09-22T03:51:02.278Z,101887.47
2022-09-22T03:53:31.945Z,101903.72
2022-09-22T03:56:11.186Z,101899.28
2022-09-22T03:58:41.436Z,101877.44
2022-09-22T04:01:12.935Z,101886.50
2022-09-22T04:03:45.157Z,101890.03
2022-09-22T04:06:15.125Z,101882.94
2022-09-22T04:08:44.925Z,101889.44
2022-09-22T04:11:14.535Z,101886.41
2022-09-22T04:13:46.464Z,101877.63
2022-09-22T04:16:16.415Z,101889.59
2022-09-22T04:18:48.874Z,101885.16
2022-09-22T04:21:18.500Z,101890.78
2022-09-22T04:23:48.303Z,101883.97
2022-09-22T04:26:18.090Z,101896.53
2022-09-22T04:28:47.718Z,101893.25
2022-09-22T04:31:17.489Z,101884.75
2022-09-22T04:33:49.746Z,101884.19
2022-09-22T04:36:19.608Z,101861.34
2022-09-22T04:38:49.282Z,101888.91
2022-09-22T04:41:19.219Z,101877.91
2022-09-22T04:43:48.827Z,101857.53
2022-09-22T04:46:18.700Z,101865.06
2022-09-22T04:48:50.942Z,101875.22
2022-09-22T04:51:20.520Z,101867.84
2022-09-22T04:53:50.124Z,101856.56
2022-09-22T04:56:19.723Z,101874.91
2022-09-22T04:58:49.374Z,101874.53
2022-09-22T05:01:19.011Z,101847.53
2022-09-22T05:03:51.466Z,101855.34
2022-09-22T05:06:21.103Z,101864.06
2022-09-22T05:08:50.774Z,101846.75
2022-09-22T05:11:23.772Z,101876.66
2022-09-22T05:13:53.772Z,101868.72
2022-09-22T05:16:23.533Z,101882.31
2022-09-22T05:18:55.956Z,101828.16
2022-09-22T05:21:25.581Z,101877.66
2022-09-22T05:23:55.269Z,101876.25
2022-09-22T05:26:24.896Z,101871.66
2022-09-22T05:28:54.585Z,101876.63
2022-09-22T05:31:24.267Z,101877.75
2022-09-22T05:33:56.627Z,101871.97
2022-09-22T05:36:26.228Z,101887.69
2022-09-22T05:38:55.843Z,101882.53
2022-09-22T05:41:25.422Z,101886.19
2022-09-22T05:43:55.259Z,101883.41
2022-09-22T05:46:24.892Z,101888.66
2022-09-22T05:48:57.217Z,101891.50
2022-09-22T05:51:26.910Z,101891.22
2022-09-22T05:53:56.746Z,101844.75
2022-09-22T05:56:26.331Z,101894.03
2022-09-22T05:58:55.961Z,101883.59
2022-09-22T06:01:25.665Z,101877.13
2022-09-22T06:03:58.131Z,101890.38
2022-09-22T06:06:27.874Z,101884.28
2022-09-22T06:08:57.456Z,101893.22
2022-09-22T06:11:27.158Z,101873.09
2022-09-22T06:13:56.827Z,101884.28
2022-09-22T06:16:26.716Z,101886.34
2022-09-22T06:18:58.977Z,101892.75
2022-09-22T06:21:28.625Z,101876.78
2022-09-22T06:23:58.208Z,101887.69
2022-09-22T06:26:27.967Z,101877.91
2022-09-22T06:28:57.908Z,101868.53
2022-09-22T06:31:27.544Z,101856.00
2022-09-22T06:34:01.485Z,101887.47
2022-09-22T06:36:33.131Z,101873.66
2022-09-22T06:39:04.443Z,101867.34
2022-09-22T06:41:36.019Z,101888.56
2022-09-22T06:44:06.930Z,101892.47
2022-09-22T06:46:37.963Z,101874.81
2022-09-22T06:49:10.525Z,101875.72
2022-09-22T06:51:40.178Z,101864.47
2022-09-22T06:54:09.955Z,101884.84
2022-09-22T06:56:42.704Z,101882.53
2022-09-22T06:59:14.302Z,101899.31
2022-09-22T07:01:45.949Z,101870.06
2022-09-22T07:04:20.064Z,101885.22
2022-09-22T07:06:50.435Z,101876.00
2022-09-22T07:09:20.105Z,101866.69
2022-09-22T07:11:50.298Z,101878.44
2022-09-22T07:14:22.427Z,101869.97
2022-09-22T07:16:55.381Z,101878.69
2022-09-22T07:19:27.612Z,101884.56
2022-09-22T07:21:57.462Z,101884.81
2022-09-22T07:24:27.882Z,101887.22
2022-09-22T07:26:58.159Z,101869.50
2022-09-22T07:29:28.257Z,101879.28
2022-09-22T07:31:59.360Z,101880.78
2022-09-22T07:34:32.870Z,101878.91
2022-09-22T07:37:03.072Z,101878.44
2022-09-22T07:39:32.678Z,101887.16
2022-09-22T07:42:02.286Z,101872.19
2022-09-22T07:44:44.819Z,101879.31
2022-09-22T07:47:14.517Z,101877.31
2022-09-22T07:49:50.706Z,101871.69
2022-09-22T07:52:24.966Z,101873.03
2022-09-22T07:54:54.634Z,101869.19
2022-09-22T07:57:25.295Z,101886.69
2022-09-22T07:59:57.529Z,101879.41
2022-09-22T08:02:28.788Z,101870.16
2022-09-22T08:05:09.382Z,101875.25
2022-09-22T08:07:40.103Z,101883.81
2022-09-22T08:10:12.795Z,101835.59
2022-09-22T08:12:48.900Z,101878.28
2022-09-22T08:15:26.889Z,101849.97
2022-09-22T08:17:59.329Z,101869.50
2022-09-22T08:20:31.652Z,101878.44
2022-09-22T08:23:01.435Z,101871.81
2022-09-22T08:25:31.273Z,101872.16
2022-09-22T08:28:04.578Z,101855.34
2022-09-22T08:30:36.445Z,101866.78
2022-09-22T08:33:07.294Z,101861.09
2022-09-22T08:35:40.596Z,101875.31
2022-09-22T08:38:12.869Z,101845.09
2022-09-22T08:40:47.123Z,101862.66
2022-09-22T08:43:20.255Z,101873.94
2022-09-22T08:45:54.566Z,101864.59
2022-09-22T08:48:42.931Z,101863.28
2022-09-22T08:51:33.940Z,101867.16
2022-09-22T08:54:04.509Z,101852.88
2022-09-22T08:56:42.349Z,101868.03
2022-09-22T08:59:23.010Z,101855.69
2022-09-22T09:02:11.367Z,101824.19
2022-09-22T09:05:01.546Z,101871.34
2022-09-22T09:07:44.001Z,101857.00
2022-09-22T09:10:30.423Z,101864.56
2022-09-22T09:13:22.108Z,101843.97
2022-09-22T09:16:04.719Z,101840.53
2022-09-22T09:18:39.889Z,101862.53
2022-09-22T09:21:16.411Z,101848.22
2022-09-22T09:26:42.127Z,101863.50
2022-09-22T09:29:19.651Z,101843.81
2022-09-22T09:31:58.520Z,101837.88
2022-09-22T09:34:33.415Z,101855.47
2022-09-22T09:37:09.131Z,101857.25
2022-09-22T09:39:44.366Z,101844.34
2022-09-22T09:42:24.946Z,101854.91
2022-09-22T09:45:02.575Z,101836.06
2022-09-22T09:47:59.070Z,101850.81
2022-09-22T09:50:32.451Z,101842.41
2022-09-22T09:53:02.809Z,101845.25
2022-09-22T09:55:35.809Z,101841.88
2022-09-22T09:58:10.859Z,101835.75
2022-09-22T10:00:56.618Z,101841.13
2022-09-22T10:03:30.857Z,101838.53
2022-09-22T10:06:09.277Z,101837.91
2022-09-22T10:08:45.872Z,101811.13
2022-09-22T10:11:18.380Z,101835.38
2022-09-22T10:13:58.773Z,101805.31
2022-09-22T10:16:33.482Z,101827.94
2022-09-22T10:19:21.969Z,101820.34
2022-09-22T10:21:52.920Z,101823.00
2022-09-22T10:24:33.168Z,101819.75
2022-09-22T10:27:07.486Z,101813.97
2022-09-22T10:29:41.909Z,101798.44
2022-09-22T10:32:18.683Z,101809.81
2022-09-22T10:34:50.821Z,101808.97
2022-09-22T10:37:28.102Z,101804.63
2022-09-22T10:40:04.173Z,101806.34
2022-09-22T10:42:41.014Z,101806.44
2022-09-22T10:45:15.410Z,101797.03
2022-09-22T10:48:00.396Z,101793.75
2022-09-22T10:51:01.655Z,101784.28
2022-09-22T10:54:08.788Z,101784.34
2022-09-22T10:56:42.287Z,101786.94
2022-09-22T10:59:38.565Z,101786.97
2022-09-22T11:02:38.284Z,101786.16
2022-09-22T11:05:42.858Z,101774.94
2022-09-22T11:08:30.873Z,101726.53
2022-09-22T11:11:23.726Z,101793.25
2022-09-22T11:14:08.532Z,101707.66
2022-09-22T11:17:00.003Z,101779.47
2022-09-22T11:19:49.268Z,101773.63
2022-09-22T11:22:34.894Z,101766.75
2022-09-22T11:25:28.198Z,101771.97
2022-09-22T11:28:11.862Z,101753.00
2022-09-22T11:30:47.339Z,101749.59
2022-09-22T11:33:47.143Z,101769.59
2022-09-22T11:36:31.448Z,101756.59
2022-09-22T11:39:22.112Z,101723.81
2022-09-22T11:42:02.299Z,101753.22
2022-09-22T11:44:41.716Z,101753.19
2022-09-22T11:47:44.742Z,101759.28
2022-09-22T11:50:49.847Z,101755.91
2022-09-22T11:53:45.623Z,101723.13
2022-09-22T11:56:30.021Z,101728.34
2022-09-22T11:59:05.276Z,101724.91
2022-09-22T12:01:40.689Z,101742.19
2022-09-22T12:04:22.267Z,101702.41
2022-09-22T12:06:57.354Z,101730.03
2022-09-22T12:09:40.471Z,101737.88
2022-09-22T12:12:17.569Z,101731.88
2022-09-22T12:14:47.911Z,101718.16
2022-09-22T12:17:24.845Z,101705.28
2022-09-22T12:20:01.649Z,101715.63
2022-09-22T12:22:38.881Z,101702.75
2022-09-22T12:25:21.196Z,101713.13
2022-09-22T12:28:02.586Z,101695.00
2022-09-22T12:30:34.377Z,101712.28
2022-09-22T12:33:05.189Z,101688.97
2022-09-22T12:35:34.844Z,101709.69
2022-09-22T12:38:05.504Z,101710.53
2022-09-22T12:40:41.647Z,101708.75
2022-09-22T12:43:19.230Z,101697.44
2022-09-22T12:45:53.079Z,101692.19
2022-09-22T12:48:27.232Z,101686.13
2022-09-22T12:51:18.393Z,101701.69
2022-09-22T12:53:48.142Z,101693.94
2022-09-22T12:56:55.545Z,101684.50
2022-09-22T13:00:24.394Z,101665.53
2022-09-22T13:02:56.400Z,101686.22
2022-09-22T13:05:46.841Z,101675.94
2022-09-22T13:08:26.002Z,101674.28
2022-09-22T13:11:03.060Z,101647.56
2022-09-22T13:13:44.171Z,101674.31
2022-09-22T13:16:37.294Z,101670.84
2022-09-22T13:19:15.106Z,101665.66
2022-09-22T13:21:48.782Z,101674.28
2022-09-22T13:24:27.380Z,101663.06
2022-09-22T13:27:06.106Z,101675.22
2022-09-22T13:29:40.104Z,101664.78
2022-09-22T13:32:26.949Z,101661.19
2022-09-22T13:34:57.025Z,101662.03
2022-09-22T13:37:27.890Z,101655.19
2022-09-22T13:39:58.721Z,101658.75
2022-09-22T13:42:32.616Z,101640.66
2022-09-22T13:45:09.065Z,101637.25
2022-09-22T13:47:40.179Z,101653.59
2022-09-22T13:50:19.565Z,101645.84
2022-09-22T13:52:53.129Z,101643.25
2022-09-22T13:55:27.639Z,101638.94
2022-09-22T13:58:00.880Z,101626.88
2022-09-22T14:00:50.081Z,101626.03
2022-09-22T14:03:29.342Z,101619.13
2022-09-22T14:06:02.209Z,101606.19
2022-09-22T14:08:35.624Z,101632.94
2022-09-22T14:11:09.365Z,101626.88
2022-09-22T14:13:45.495Z,101616.53
2022-09-22T14:16:27.059Z,101580.34
2022-09-22T14:19:07.750Z,101623.44
2022-09-22T14:21:47.196Z,101598.44
2022-09-22T14:24:22.452Z,101622.53
2022-09-22T14:27:00.201Z,101615.63
2022-09-22T14:29:36.027Z,101626.84
2022-09-22T14:32:14.271Z,101617.41
2022-09-22T14:34:49.983Z,101606.16
2022-09-22T14:37:26.211Z,101612.19
2022-09-22T14:39:57.473Z,101619.09
2022-09-22T14:42:30.331Z,101598.34
2022-09-22T14:45:29.547Z,101607.84
2022-09-22T14:48:20.643Z,101611.28
2022-09-22T14:50:59.647Z,101600.94
2022-09-22T14:53:33.881Z,101609.63
2022-09-22T14:56:09.159Z,101598.41
2022-09-22T14:58:41.652Z,101589.75
2022-09-22T15:01:35.538Z,101594.91
2022-09-22T15:04:14.732Z,101562.97
2022-09-22T15:06:48.198Z,101585.41
2022-09-22T15:09:26.547Z,101568.16
2022-09-22T15:12:00.462Z,101585.41
2022-09-22T15:14:41.678Z,101571.63
2022-09-22T15:17:50.210Z,101563.00
2022-09-22T15:20:22.865Z,101578.53
2022-09-22T15:22:54.739Z,101571.63
2022-09-22T15:25:26.320Z,101555.25
2022-09-22T15:27:56.181Z,101577.66
2022-09-22T15:30:26.158Z,101573.31
2022-09-22T15:32:57.946Z,101558.63
2022-09-22T15:35:30.302Z,101531.81
2022-09-22T15:38:01.090Z,101572.34
2022-09-22T15:40:31.998Z,101574.06
2022-09-22T15:43:13.185Z,101575.78
2022-09-22T15:45:50.289Z,101551.63
2022-09-22T15:48:27.819Z,101543.88
2022-09-22T15:51:04.537Z,101564.59
2022-09-22T15:53:37.868Z,101548.16
2022-09-22T15:56:15.296Z,101565.41
2022-09-22T15:58:46.380Z,101560.25
2022-09-22T16:01:19.608Z,101555.94
2022-09-22T16:03:50.347Z,101551.63
2022-09-22T16:06:23.984Z,101555.06
2022-09-22T16:08:55.421Z,101543.03
2022-09-22T16:11:30.001Z,101538.72
2022-09-22T16:14:01.754Z,101545.63
2022-09-22T16:16:32.409Z,101543.84
2022-09-22T16:19:02.709Z,101533.44
2022-09-22T16:21:36.901Z,101525.66
2022-09-22T16:24:10.595Z,101536.81
2022-09-22T16:26:42.858Z,101530.78
2022-09-22T16:29:13.560Z,101536.78
2022-09-22T16:31:44.378Z,101514.38
2022-09-22T16:34:14.152Z,101515.19
2022-09-22T16:36:46.408Z,101530.72
2022-09-22T16:39:17.222Z,101530.63
2022-09-22T16:41:48.444Z,101503.91
2022-09-22T16:44:18.418Z,101513.03
2022-09-22T16:46:48.094Z,101528.44
2022-09-22T16:49:20.427Z,101504.13
2022-09-22T16:51:55.094Z,101506.69
2022-09-22T16:54:25.150Z,101504.84
2022-09-22T16:56:56.849Z,101520.38
2022-09-22T16:59:28.104Z,101531.59
2022-09-22T17:01:58.768Z,101529.84
2022-09-22T17:04:29.648Z,101528.91
2022-09-22T17:07:05.897Z,101533.19
2022-09-22T17:09:36.889Z,101525.34
2022-09-22T17:12:10.861Z,101527.91
2022-09-22T17:14:41.514Z,101535.59
2022-09-22T17:17:12.266Z,101529.63
2022-09-22T17:19:43.310Z,101526.97
2022-09-22T17:22:15.574Z,101510.47
2022-09-22T17:24:45.659Z,101506.91
2022-09-22T17:27:15.373Z,101525.75
2022-09-22T17:29:45.186Z,101522.28
2022-09-22T17:32:15.909Z,101510.97
2022-09-22T17:34:45.557Z,101513.47
2022-09-22T17:37:20.292Z,101505.59
2022-09-22T17:39:49.943Z,101512.50
2022-09-22T17:42:21.556Z,101509.84
2022-09-22T17:44:51.287Z,101484.75
2022-09-22T17:47:48.252Z,101518.03
2022-09-22T17:50:30.380Z,101496.44
2022-09-22T17:53:16.071Z,101518.06
2022-09-22T17:55:45.779Z,101474.94
2022-09-22T17:58:15.498Z,101521.25
2022-09-22T18:00:45.221Z,101519.25
2022-09-22T18:03:14.977Z,101511.34
2022-09-22T18:05:45.178Z,101509.41
2022-09-22T18:08:19.416Z,101498.00
2022-09-22T18:10:49.058Z,101520.19
2022-09-22T18:13:19.715Z,101518.28
2022-09-22T18:15:50.956Z,101517.22
2022-09-22T18:18:20.642Z,101517.03
2022-09-22T18:20:50.507Z,101497.88
2022-09-22T18:23:28.370Z,101507.38
2022-09-22T18:25:58.443Z,101517.66
2022-09-22T18:28:28.065Z,101526.31
2022-09-22T18:30:57.737Z,101520.31
2022-09-22T18:33:27.421Z,101500.44
2022-09-22T18:35:59.230Z,101514.22
2022-09-22T18:38:33.516Z,101492.53
2022-09-22T18:41:04.277Z,101521.00
2022-09-22T18:43:33.932Z,101509.66
2022-09-22T18:46:07.322Z,101522.41
2022-09-22T18:48:40.306Z,101524.72
2022-09-22T18:51:09.919Z,101522.84
2022-09-22T18:53:43.468Z,101512.41
2022-09-22T18:56:14.058Z,101506.25
2022-09-22T18:58:43.656Z,101522.56
2022-09-22T19:01:15.675Z,101512.41
2022-09-22T19:03:48.081Z,101490.66
2022-09-22T19:06:20.839Z,101517.34
2022-09-22T19:08:54.552Z,101476.75
2022-09-22T19:11:25.244Z,101518.22
2022-09-22T19:13:55.387Z,101517.31
2022-09-22T19:16:26.106Z,101511.94
2022-09-22T19:18:55.799Z,101516.13
2022-09-22T19:21:25.489Z,101524.81
2022-09-22T19:23:57.867Z,101494.34
2022-09-22T19:26:28.307Z,101527.09
2022-09-22T19:28:58.071Z,101513.25
2022-09-22T19:31:28.764Z,101525.16
2022-09-22T19:33:58.546Z,101524.16
2022-09-22T19:36:30.459Z,101530.09
2022-09-22T19:39:02.971Z,101509.38
2022-09-22T19:41:35.819Z,101514.50
2022-09-22T19:44:05.677Z,101513.34
2022-09-22T19:46:36.465Z,101517.41
2022-09-22T19:49:06.856Z,101469.78
2022-09-22T19:51:37.602Z,101510.34
2022-09-22T19:54:09.884Z,101507.63
2022-09-22T19:56:39.602Z,101507.41
2022-09-22T19:59:11.263Z,101510.09
2022-09-22T20:01:43.097Z,101502.88
2022-09-22T20:04:17.921Z,101509.59
2022-09-22T20:06:48.779Z,101500.75
2022-09-22T20:09:23.089Z,101513.94
2022-09-22T20:11:53.772Z,101499.28
2022-09-22T20:14:25.317Z,101508.88
2022-09-22T20:16:59.809Z,101507.25
2022-09-22T20:19:31.376Z,101515.56
2022-09-22T20:22:20.936Z,101515.44
2022-09-22T20:24:57.494Z,101466.97
2022-09-22T20:27:30.328Z,101501.63
2022-09-22T20:30:00.450Z,101510.44
2022-09-22T20:32:33.070Z,101499.34
2022-09-22T20:35:04.304Z,101495.25
2022-09-22T20:37:34.037Z,101494.31
2022-09-22T20:40:07.535Z,101500.31
2022-09-22T20:42:37.386Z,101488.84
2022-09-22T20:45:08.122Z,101485.44
2022-09-22T20:47:37.891Z,101482.66
2022-09-22T20:50:09.743Z,101488.66
2022-09-22T20:52:42.525Z,101488.38
2022-09-22T20:55:18.179Z,101473.50
2022-09-22T20:57:47.900Z,101487.16
2022-09-22T21:00:18.006Z,101490.41
2022-09-22T21:02:48.724Z,101458.50
2022-09-22T21:05:19.548Z,101486.97
2022-09-22T21:08:09.187Z,101486.97
2022-09-22T21:10:38.829Z,101487.84
2022-09-22T21:13:09.585Z,101489.47
2022-09-22T21:15:39.533Z,101488.28
2022-09-22T21:18:11.262Z,101489.84
2022-09-22T21:20:42.869Z,101467.53
2022-09-22T21:23:12.526Z,101485.81
2022-09-22T21:25:45.812Z,101487.69
2022-09-22T21:28:16.443Z,101466.97
2022-09-22T21:30:46.119Z,101464.47
2022-09-22T21:33:17.494Z,101481.06
2022-09-22T21:35:47.132Z,101484.31
2022-09-22T21:38:17.741Z,101474.09
2022-09-22T21:40:50.027Z,101467.38
2022-09-22T21:43:23.299Z,101463.97
2022-09-22T21:46:05.016Z,101472.81
2022-09-22T21:48:37.685Z,101451.03
2022-09-22T21:51:09.931Z,101456.28
2022-09-22T21:53:44.081Z,101455.56
2022-09-22T21:56:17.851Z,101458.19
2022-09-22T21:58:50.304Z,101433.91
2022-09-22T22:01:23.843Z,101401.72
2022-09-22T22:03:55.927Z,101452.97
2022-09-22T22:06:26.973Z,101444.56
2022-09-22T22:09:02.384Z,101436.81
2022-09-22T22:11:36.782Z,101428.91
2022-09-22T22:14:08.872Z,101445.34
2022-09-22T22:16:40.268Z,101440.13
2022-09-22T22:19:12.081Z,101409.94
2022-09-22T22:21:43.567Z,101435.09
2022-09-22T22:24:33.389Z,101429.00
2022-09-22T22:27:10.175Z,101426.28
2022-09-22T22:29:41.268Z,101428.66
2022-09-22T22:32:12.519Z,101424.53
2022-09-22T22:34:42.133Z,101421.81
2022-09-22T22:37:11.846Z,101433.72
2022-09-22T22:39:41.429Z,101419.19
2022-09-22T22:42:13.603Z,101421.81
2022-09-22T22:44:43.180Z,101430.13
2022-09-22T22:47:13.096Z,101425.78
2022-09-22T22:49:43.071Z,101424.16
2022-09-22T22:52:12.644Z,101403.34
2022-09-22T22:54:42.273Z,101421.59
2022-09-22T22:57:14.553Z,101424.03
2022-09-22T22:59:44.184Z,101430.63
2022-09-22T23:02:13.796Z,101422.06
2022-09-22T23:04:43.390Z,101409.00
2022-09-22T23:07:13.040Z,101397.66
2022-09-22T23:09:42.610Z,101403.69
2022-09-22T23:12:15.295Z,101421.09
2022-09-22T23:14:44.909Z,101409.16
2022-09-22T23:17:15.365Z,101401.38
2022-09-22T23:19:45.524Z,101403.78
2022-09-22T23:22:15.114Z,101396.69
2022-09-22T23:24:44.703Z,101411.44
2022-09-22T23:27:17.041Z,101399.47
2022-09-22T23:29:46.677Z,101403.56
2022-09-22T23:32:16.633Z,101407.84
2022-09-22T23:34:46.251Z,101406.00
2022-09-22T23:37:15.824Z,101399.81
2022-09-22T23:39:45.480Z,101385.97
2022-09-22T23:42:17.727Z,101382.63
2022-09-22T23:44:47.426Z,101401.25
2022-09-22T23:47:17.028Z,101377.72
2022-09-22T23:49:46.813Z,101404.47
2022-09-22T23:52:16.405Z,101378.63
2022-09-22T23:54:45.978Z,101389.06
2022-09-22T23:57:18.164Z,101384.97
2022-09-22T23:59:47.836Z,101381.50
